createdAt,value
2023-07-29T00:02:25.764Z,15.83
2023-07-29T00:04:52.241Z,15.59
2023-07-29T00:07:18.645Z,15.55
2023-07-29T00:09:45.068Z,15.59
2023-07-29T00:12:11.449Z,15.61
2023-07-29T00:14:37.818Z,15.49
2023-07-29T00:17:04.248Z,15.57
2023-07-29T00:19:30.723Z,15.55
2023-07-29T00:21:57.126Z,15.66
2023-07-29T00:24:23.515Z,15.54
2023-07-29T00:26:49.925Z,15.54
2023-07-29T00:29:16.328Z,15.59
2023-07-29T00:31:42.761Z,15.59
2023-07-29T00:34:09.143Z,15.49
2023-07-29T00:36:35.906Z,15.54
2023-07-29T00:39:02.705Z,15.58
2023-07-29T00:41:29.124Z,15.57
2023-07-29T00:43:55.544Z,15.65
2023-07-29T00:46:21.976Z,15.55
2023-07-29T00:48:48.675Z,15.54
2023-07-29T00:51:15.188Z,15.59
2023-07-29T00:53:41.580Z,15.70
2023-07-29T00:56:07.970Z,15.66
2023-07-29T00:58:34.362Z,15.59
2023-07-29T01:01:00.780Z,15.55
2023-07-29T01:03:27.358Z,15.73
2023-07-29T01:05:53.801Z,15.52
2023-07-29T01:08:20.196Z,15.52
2023-07-29T01:10:46.809Z,15.57
2023-07-29T01:13:13.207Z,15.76
2023-07-29T01:15:39.815Z,15.52
2023-07-29T01:18:06.401Z,15.51
2023-07-29T01:20:32.892Z,15.57
2023-07-29T01:22:59.308Z,15.83
2023-07-29T01:25:25.724Z,15.69
2023-07-29T01:27:52.156Z,15.57
2023-07-29T01:30:18.609Z,15.54
2023-07-29T01:32:45.102Z,15.58
2023-07-29T01:35:11.535Z,15.52
2023-07-29T01:37:37.923Z,15.51
2023-07-29T01:40:04.522Z,15.55
2023-07-29T01:42:30.938Z,15.58
2023-07-29T01:44:58.272Z,15.55
2023-07-29T01:47:24.684Z,15.52
2023-07-29T01:49:51.104Z,15.57
2023-07-29T01:52:17.528Z,15.55
2023-07-29T01:54:43.920Z,15.82
2023-07-29T01:57:10.512Z,15.52
2023-07-29T01:59:36.929Z,15.51
2023-07-29T02:02:03.534Z,15.55
2023-07-29T02:04:29.994Z,15.57
2023-07-29T02:06:56.659Z,15.52
2023-07-29T02:09:23.050Z,15.51
2023-07-29T02:11:49.651Z,15.58
2023-07-29T02:14:16.023Z,15.70
2023-07-29T02:16:42.667Z,15.61
2023-07-29T02:19:09.114Z,15.49
2023-07-29T02:21:35.702Z,15.54
2023-07-29T02:24:02.111Z,15.55
2023-07-29T02:26:28.740Z,15.85
2023-07-29T02:28:55.143Z,15.58
2023-07-29T02:31:21.608Z,15.57
2023-07-29T02:33:48.253Z,15.51
2023-07-29T02:36:14.673Z,15.69
2023-07-29T02:38:41.312Z,15.54
2023-07-29T02:41:07.750Z,15.51
2023-07-29T02:43:34.174Z,15.54
2023-07-29T02:46:00.589Z,15.63
2023-07-29T02:48:26.992Z,15.63
2023-07-29T02:50:53.436Z,15.58
2023-07-29T02:53:19.840Z,15.54
2023-07-29T02:55:46.472Z,15.79
2023-07-29T02:58:12.880Z,15.52
2023-07-29T03:00:39.547Z,15.52
2023-07-29T03:03:06.262Z,15.55
2023-07-29T03:05:32.734Z,15.54
2023-07-29T03:07:59.111Z,15.47
2023-07-29T03:10:25.733Z,15.48
2023-07-29T03:12:53.235Z,15.54
2023-07-29T03:15:19.629Z,15.52
2023-07-29T03:17:46.083Z,15.81
2023-07-29T03:20:12.471Z,15.54
2023-07-29T03:22:38.835Z,15.52
2023-07-29T03:25:05.254Z,15.47
2023-07-29T03:27:31.656Z,15.58
2023-07-29T03:29:58.034Z,15.48
2023-07-29T03:32:24.474Z,15.49
2023-07-29T03:34:50.953Z,15.49
2023-07-29T03:37:17.347Z,15.52
2023-07-29T03:39:43.769Z,15.47
2023-07-29T03:42:10.162Z,15.51
2023-07-29T03:44:36.548Z,15.52
2023-07-29T03:47:02.954Z,15.58
2023-07-29T03:49:29.405Z,15.45
2023-07-29T03:51:56.055Z,15.49
2023-07-29T03:54:22.434Z,15.52
2023-07-29T03:56:48.817Z,15.47
2023-07-29T03:59:15.423Z,15.44
2023-07-29T04:01:41.859Z,15.45
2023-07-29T04:04:08.621Z,15.52
2023-07-29T04:06:35.361Z,15.55
2023-07-29T04:09:02.148Z,15.52
2023-07-29T04:11:28.752Z,15.65
2023-07-29T04:13:55.156Z,15.59
2023-07-29T04:16:21.591Z,15.49
2023-07-29T04:18:48.022Z,15.54
2023-07-29T04:21:14.438Z,15.48
2023-07-29T04:23:40.859Z,15.51
2023-07-29T04:26:07.461Z,15.52
2023-07-29T04:28:33.890Z,15.47
2023-07-29T04:31:00.511Z,15.42
2023-07-29T04:33:26.919Z,15.47
2023-07-29T04:35:53.536Z,15.55
2023-07-29T04:38:20.151Z,15.47
2023-07-29T04:40:46.765Z,15.44
2023-07-29T04:43:13.161Z,15.49
2023-07-29T04:45:39.806Z,15.55
2023-07-29T04:48:06.269Z,15.65
2023-07-29T04:50:32.715Z,15.48
2023-07-29T04:52:59.109Z,15.47
2023-07-29T04:55:25.485Z,15.49
2023-07-29T04:57:51.862Z,15.48
2023-07-29T05:00:18.464Z,15.49
2023-07-29T05:02:44.913Z,15.45
2023-07-29T05:05:11.349Z,15.51
2023-07-29T05:07:37.740Z,15.52
2023-07-29T05:10:04.140Z,15.58
2023-07-29T05:12:30.615Z,15.42
2023-07-29T05:14:57.262Z,15.49
2023-07-29T05:17:23.704Z,15.55
2023-07-29T05:19:50.313Z,15.47
2023-07-29T05:22:16.703Z,15.45
2023-07-29T05:24:43.078Z,15.45
2023-07-29T05:27:09.461Z,15.55
2023-07-29T05:29:35.874Z,15.57
2023-07-29T05:32:02.265Z,15.45
2023-07-29T05:34:28.893Z,15.47
2023-07-29T05:36:55.296Z,15.49
2023-07-29T05:39:21.711Z,15.45
2023-07-29T05:41:48.126Z,15.55
2023-07-29T05:44:14.712Z,15.49
2023-07-29T05:46:41.248Z,15.48
2023-07-29T05:49:07.853Z,15.48
2023-07-29T05:51:34.469Z,15.57
2023-07-29T05:54:01.096Z,15.47
2023-07-29T05:56:27.523Z,15.48
2023-07-29T05:58:53.923Z,15.55
2023-07-29T06:01:20.568Z,15.59
2023-07-29T06:03:47.208Z,15.48
2023-07-29T06:06:13.602Z,15.49
2023-07-29T06:08:39.983Z,15.52
2023-07-29T06:11:06.396Z,15.45
2023-07-29T06:13:32.793Z,15.45
2023-07-29T06:15:59.213Z,15.49
2023-07-29T06:18:25.598Z,15.58
2023-07-29T06:20:52.028Z,15.52
2023-07-29T06:23:18.432Z,15.47
2023-07-29T06:25:44.872Z,15.51
2023-07-29T06:28:11.577Z,15.52
2023-07-29T06:30:38.082Z,15.54
2023-07-29T06:33:04.554Z,15.68
2023-07-29T06:35:30.953Z,15.72
2023-07-29T06:37:57.329Z,15.62
2023-07-29T06:40:23.950Z,15.61
2023-07-29T06:42:50.358Z,15.65
2023-07-29T06:45:16.964Z,15.58
2023-07-29T06:47:43.382Z,15.58
2023-07-29T06:50:09.802Z,15.62
2023-07-29T06:52:36.404Z,15.62
2023-07-29T06:55:02.803Z,15.69
2023-07-29T06:57:29.226Z,15.70
2023-07-29T06:59:55.641Z,15.62
2023-07-29T07:02:22.058Z,15.63
2023-07-29T07:04:48.757Z,15.63
2023-07-29T07:07:15.254Z,15.66
2023-07-29T07:09:41.678Z,15.63
2023-07-29T07:12:08.067Z,15.68
2023-07-29T07:14:34.645Z,15.62
2023-07-29T07:17:01.033Z,15.55
2023-07-29T07:19:28.158Z,15.62
2023-07-29T07:21:54.570Z,15.68
2023-07-29T07:24:20.981Z,15.63
2023-07-29T07:26:47.380Z,15.59
2023-07-29T07:29:13.782Z,15.62
2023-07-29T07:31:40.217Z,15.59
2023-07-29T07:34:06.701Z,15.69
2023-07-29T07:36:33.108Z,15.72
2023-07-29T07:38:59.552Z,15.79
2023-07-29T07:41:25.960Z,15.66
2023-07-29T07:43:52.339Z,15.72
2023-07-29T07:46:19.083Z,15.70
2023-07-29T07:48:45.607Z,15.61
2023-07-29T07:51:12.006Z,15.65
2023-07-29T07:53:38.407Z,15.65
2023-07-29T07:56:04.795Z,15.61
2023-07-29T07:58:31.408Z,15.58
2023-07-29T08:00:57.818Z,15.62
2023-07-29T08:03:24.286Z,15.63
2023-07-29T08:05:50.694Z,15.68
2023-07-29T08:08:17.321Z,15.61
2023-07-29T08:10:43.738Z,15.73
2023-07-29T08:13:10.348Z,15.70
2023-07-29T08:15:36.774Z,15.68
2023-07-29T08:18:03.287Z,15.61
2023-07-29T08:20:29.960Z,15.75
2023-07-29T08:22:56.379Z,15.75
2023-07-29T08:25:22.792Z,15.78
2023-07-29T08:27:49.188Z,15.75
2023-07-29T08:30:15.582Z,15.73
2023-07-29T08:32:41.999Z,15.76
2023-07-29T08:35:08.399Z,15.69
2023-07-29T08:37:34.800Z,15.69
2023-07-29T08:40:01.418Z,15.73
2023-07-29T08:42:27.822Z,15.73
2023-07-29T08:44:54.200Z,15.66
2023-07-29T08:47:20.617Z,15.72
2023-07-29T08:49:47.019Z,15.65
2023-07-29T08:52:13.630Z,15.83
2023-07-29T08:54:40.042Z,15.70
2023-07-29T08:57:06.449Z,15.72
2023-07-29T08:59:33.069Z,15.73
2023-07-29T09:01:59.469Z,15.65
2023-07-29T09:04:26.159Z,15.66
2023-07-29T09:06:52.862Z,15.69
2023-07-29T09:09:19.470Z,15.73
2023-07-29T09:11:45.871Z,15.70
2023-07-29T09:14:12.583Z,15.87
2023-07-29T09:16:39.449Z,15.85
2023-07-29T09:19:06.138Z,15.79
2023-07-29T09:21:32.524Z,15.83
2023-07-29T09:23:58.921Z,15.83
2023-07-29T09:26:25.588Z,15.76
2023-07-29T09:28:52.229Z,15.79
2023-07-29T09:31:18.617Z,15.86
2023-07-29T09:33:45.091Z,15.86
2023-07-29T09:36:11.609Z,15.73
2023-07-29T09:38:38.243Z,15.76
2023-07-29T09:41:04.629Z,15.73
2023-07-29T09:43:30.995Z,15.76
2023-07-29T09:45:57.389Z,15.78
2023-07-29T09:48:23.850Z,15.73
2023-07-29T09:50:50.439Z,15.68
2023-07-29T09:53:16.840Z,15.79
2023-07-29T09:55:43.245Z,15.72
2023-07-29T09:58:09.703Z,15.72
2023-07-29T10:00:36.110Z,15.75
2023-07-29T10:03:02.667Z,15.96
2023-07-29T10:05:29.153Z,15.85
2023-07-29T10:07:55.541Z,15.73
2023-07-29T10:10:21.939Z,15.69
2023-07-29T10:12:48.363Z,15.69
2023-07-29T10:15:14.791Z,15.85
2023-07-29T10:17:41.226Z,15.76
2023-07-29T10:20:07.624Z,15.73
2023-07-29T10:22:34.002Z,15.68
2023-07-29T10:25:00.603Z,15.66
2023-07-29T10:27:27.003Z,15.78
2023-07-29T10:29:53.653Z,15.78
2023-07-29T10:32:20.239Z,15.75
2023-07-29T10:34:46.740Z,15.83
2023-07-29T10:37:13.124Z,15.90
2023-07-29T10:39:39.746Z,15.73
2023-07-29T10:42:06.154Z,15.76
2023-07-29T10:44:32.544Z,15.76
2023-07-29T10:46:58.994Z,15.78
2023-07-29T10:49:25.498Z,15.73
2023-07-29T10:51:54.167Z,15.76
2023-07-29T10:54:21.029Z,15.70
2023-07-29T10:56:47.667Z,15.90
2023-07-29T10:59:14.094Z,15.85
2023-07-29T11:01:40.565Z,15.81
2023-07-29T11:04:06.985Z,15.72
2023-07-29T11:06:33.437Z,15.85
2023-07-29T11:08:59.848Z,15.86
2023-07-29T11:11:26.271Z,15.78
2023-07-29T11:13:52.639Z,15.82
2023-07-29T11:16:19.113Z,15.93
2023-07-29T11:18:45.570Z,15.83
2023-07-29T11:21:11.958Z,15.82
2023-07-29T11:23:38.576Z,15.92
2023-07-29T11:26:05.046Z,15.83
2023-07-29T11:28:31.524Z,15.76
2023-07-29T11:30:57.971Z,15.95
2023-07-29T11:33:24.576Z,15.86
2023-07-29T11:35:51.192Z,15.81
2023-07-29T11:38:17.583Z,15.96
2023-07-29T11:40:44.201Z,15.89
2023-07-29T11:43:10.567Z,15.89
2023-07-29T11:45:50.482Z,15.95
2023-07-29T11:48:18.092Z,15.75
2023-07-29T11:50:44.485Z,15.82
2023-07-29T11:53:10.853Z,15.86
2023-07-29T11:55:37.237Z,15.89
2023-07-29T11:58:03.652Z,15.76
2023-07-29T12:00:30.254Z,15.79
2023-07-29T12:02:56.760Z,15.97
2023-07-29T12:05:23.396Z,15.93
2023-07-29T12:07:49.818Z,15.82
2023-07-29T12:10:16.462Z,15.81
2023-07-29T12:12:42.850Z,15.96
2023-07-29T12:15:09.451Z,15.90
2023-07-29T12:17:36.184Z,15.87
2023-07-29T12:20:02.675Z,15.83
2023-07-29T12:22:29.126Z,15.90
2023-07-29T12:24:55.966Z,15.96
2023-07-29T12:27:22.330Z,15.90
2023-07-29T12:29:48.737Z,15.83
2023-07-29T12:32:15.227Z,15.93
2023-07-29T12:34:41.887Z,15.92
2023-07-29T12:37:08.351Z,15.90
2023-07-29T12:39:34.795Z,15.79
2023-07-29T12:42:01.206Z,15.78
2023-07-29T12:44:27.613Z,15.97
2023-07-29T12:46:54.076Z,15.92
2023-07-29T12:49:20.612Z,15.90
2023-07-29T12:51:46.999Z,15.83
2023-07-29T12:54:13.393Z,15.83
2023-07-29T12:56:39.969Z,15.89
2023-07-29T12:59:06.454Z,15.90
2023-07-29T13:01:32.847Z,15.81
2023-07-29T13:03:59.343Z,15.82
2023-07-29T13:06:25.796Z,15.99
2023-07-29T13:08:52.202Z,15.87
2023-07-29T13:11:18.639Z,15.81
2023-07-29T13:13:45.076Z,15.79
2023-07-29T13:16:11.567Z,15.85
2023-07-29T13:18:38.024Z,15.92
2023-07-29T13:21:04.503Z,15.87
2023-07-29T13:23:30.878Z,15.73
2023-07-29T13:25:57.287Z,15.85
2023-07-29T13:28:23.685Z,15.90
2023-07-29T13:30:50.102Z,15.89
2023-07-29T13:33:16.520Z,15.79
2023-07-29T13:35:42.915Z,15.81
2023-07-29T13:38:09.510Z,15.89
2023-07-29T13:40:38.229Z,16.00
2023-07-29T13:43:04.962Z,15.86
2023-07-29T13:45:31.371Z,15.83
2023-07-29T13:47:57.810Z,15.83
2023-07-29T13:50:24.292Z,15.95
2023-07-29T13:52:50.688Z,15.89
2023-07-29T13:55:17.312Z,15.82
2023-07-29T13:57:43.701Z,15.92
2023-07-29T14:00:10.269Z,15.95
2023-07-29T14:02:36.694Z,15.93
2023-07-29T14:05:03.491Z,15.83
2023-07-29T14:07:30.477Z,15.86
2023-07-29T14:09:59.789Z,15.93
2023-07-29T14:12:28.088Z,15.97
2023-07-29T14:14:54.506Z,15.87
2023-07-29T14:17:20.911Z,15.85
2023-07-29T14:19:47.537Z,16.00
2023-07-29T14:22:13.919Z,16.07
2023-07-29T14:24:40.317Z,16.09
2023-07-29T14:27:06.737Z,16.07
2023-07-29T14:29:33.163Z,16.00
2023-07-29T14:31:59.552Z,16.07
2023-07-29T14:34:25.919Z,15.96
2023-07-29T14:36:52.306Z,16.03
2023-07-29T14:39:18.978Z,15.99
2023-07-29T14:41:45.369Z,16.03
2023-07-29T14:44:11.745Z,16.03
2023-07-29T14:46:38.535Z,15.96
2023-07-29T14:49:05.241Z,15.96
2023-07-29T14:51:31.658Z,16.06
2023-07-29T14:53:58.040Z,16.20
2023-07-29T14:56:24.552Z,16.00
2023-07-29T14:58:50.976Z,16.00
2023-07-29T15:01:17.491Z,16.07
2023-07-29T15:03:46.829Z,16.02
2023-07-29T15:06:13.528Z,15.93
2023-07-29T15:08:39.920Z,16.05
2023-07-29T15:11:06.335Z,16.09
2023-07-29T15:13:33.107Z,16.00
2023-07-29T15:15:59.823Z,15.99
2023-07-29T15:18:26.570Z,15.90
2023-07-29T15:20:53.449Z,16.16
2023-07-29T15:23:19.853Z,15.97
2023-07-29T15:25:46.258Z,15.99
2023-07-29T15:28:12.682Z,15.97
2023-07-29T15:30:40.477Z,16.12
2023-07-29T15:33:08.062Z,16.02
2023-07-29T15:35:34.524Z,15.97
2023-07-29T15:38:00.923Z,15.87
2023-07-29T15:40:27.315Z,16.02
2023-07-29T15:42:53.714Z,15.97
2023-07-29T15:45:20.120Z,15.97
2023-07-29T15:47:46.526Z,15.90
2023-07-29T15:50:12.975Z,15.99
2023-07-29T15:52:39.367Z,16.00
2023-07-29T15:55:05.817Z,16.14
2023-07-29T15:57:32.223Z,15.97
2023-07-29T15:59:58.821Z,16.23
2023-07-29T16:02:25.219Z,16.10
2023-07-29T16:04:51.634Z,15.96
2023-07-29T16:07:18.068Z,16.07
2023-07-29T16:09:44.474Z,16.07
2023-07-29T16:12:10.878Z,16.10
2023-07-29T16:14:37.281Z,16.12
2023-07-29T16:17:03.752Z,15.95
2023-07-29T16:19:30.139Z,16.10
2023-07-29T16:21:56.687Z,16.03
2023-07-29T16:24:23.171Z,15.99
2023-07-29T16:26:49.581Z,15.90
2023-07-29T16:29:16.177Z,16.06
2023-07-29T16:31:42.645Z,15.96
2023-07-29T16:34:09.296Z,16.02
2023-07-29T16:36:35.878Z,16.09
2023-07-29T16:39:02.523Z,15.93
2023-07-29T16:42:01.774Z,16.09
2023-07-29T16:44:15.446Z,15.96
2023-07-29T16:46:42.049Z,15.93
2023-07-29T16:49:13.279Z,16.06
2023-07-29T16:51:45.548Z,16.16
2023-07-29T16:54:11.916Z,15.97
2023-07-29T16:56:38.586Z,15.96
2023-07-29T16:59:05.886Z,16.10
2023-07-29T17:01:32.308Z,16.03
2023-07-29T17:03:58.722Z,16.06
2023-07-29T17:06:25.224Z,16.05
2023-07-29T17:08:51.771Z,16.00
2023-07-29T17:11:18.387Z,16.10
2023-07-29T17:13:45.078Z,15.93
2023-07-29T17:16:11.747Z,15.96
2023-07-29T17:18:38.464Z,15.92
2023-07-29T17:21:05.186Z,16.07
2023-07-29T17:23:32.767Z,16.10
2023-07-29T17:25:59.273Z,16.05
2023-07-29T17:28:25.906Z,16.10
2023-07-29T17:30:52.523Z,15.92
2023-07-29T17:33:18.992Z,16.06
2023-07-29T17:35:45.369Z,16.06
2023-07-29T17:38:13.411Z,16.30
2023-07-29T17:40:40.072Z,15.93
2023-07-29T17:43:06.461Z,16.02
2023-07-29T17:45:32.848Z,16.03
2023-07-29T17:47:59.309Z,15.96
2023-07-29T17:50:25.759Z,16.12
2023-07-29T17:52:52.145Z,16.18
2023-07-29T17:55:18.532Z,16.18
2023-07-29T17:57:44.942Z,16.07
2023-07-29T18:00:14.347Z,15.95
2023-07-29T18:02:41.758Z,15.97
2023-07-29T18:05:08.254Z,15.92
2023-07-29T18:07:34.639Z,15.99
2023-07-29T18:10:01.051Z,15.96
2023-07-29T18:12:27.488Z,16.03
2023-07-29T18:14:53.890Z,15.93
2023-07-29T18:17:20.383Z,15.93
2023-07-29T18:19:46.855Z,15.95
2023-07-29T18:22:13.262Z,15.95
2023-07-29T18:24:39.678Z,16.03
2023-07-29T18:27:06.109Z,15.95
2023-07-29T18:29:32.508Z,16.06
2023-07-29T18:31:59.137Z,15.92
2023-07-29T18:34:25.541Z,15.87
2023-07-29T18:36:51.942Z,16.02
2023-07-29T18:39:18.315Z,15.93
2023-07-29T18:41:44.703Z,15.95
2023-07-29T18:44:11.103Z,15.96
2023-07-29T18:46:37.801Z,16.03
2023-07-29T18:49:04.502Z,15.97
2023-07-29T18:51:31.093Z,16.17
2023-07-29T18:53:57.491Z,15.92
2023-07-29T18:56:23.870Z,16.02
2023-07-29T18:58:50.291Z,16.00
2023-07-29T19:01:16.804Z,16.12
2023-07-29T19:03:43.325Z,16.05
2023-07-29T19:06:09.860Z,16.00
2023-07-29T19:08:36.257Z,16.13
2023-07-29T19:11:02.790Z,16.20
2023-07-29T19:13:29.418Z,16.06
2023-07-29T19:15:55.908Z,16.07
2023-07-29T19:18:22.386Z,16.24
2023-07-29T19:20:48.804Z,16.16
2023-07-29T19:23:15.208Z,16.07
2023-07-29T19:25:41.578Z,16.06
2023-07-29T19:28:08.003Z,16.07
2023-07-29T19:30:34.635Z,15.97
2023-07-29T19:33:01.128Z,16.24
2023-07-29T19:35:27.550Z,15.87
2023-07-29T19:37:54.292Z,15.97
2023-07-29T19:40:20.778Z,16.03
2023-07-29T19:42:47.211Z,15.97
2023-07-29T19:45:13.596Z,16.09
2023-07-29T19:47:40.009Z,15.99
2023-07-29T19:50:06.454Z,16.03
2023-07-29T19:52:32.878Z,16.02
2023-07-29T19:54:59.297Z,16.24
2023-07-29T19:57:25.695Z,15.95
2023-07-29T19:59:52.100Z,16.09
2023-07-29T20:02:18.497Z,16.02
2023-07-29T20:04:44.889Z,16.05
2023-07-29T20:07:11.271Z,16.14
2023-07-29T20:09:37.703Z,15.97
2023-07-29T20:12:07.250Z,16.17
2023-07-29T20:14:33.654Z,15.95
2023-07-29T20:17:00.040Z,16.17
2023-07-29T20:19:26.435Z,16.21
2023-07-29T20:21:53.062Z,16.24
2023-07-29T20:24:19.469Z,16.00
2023-07-29T20:26:45.902Z,16.00
2023-07-29T20:29:12.511Z,16.14
2023-07-29T20:31:39.064Z,16.23
2023-07-29T20:34:05.885Z,16.14
2023-07-29T20:36:32.285Z,16.20
2023-07-29T20:38:58.908Z,16.17
2023-07-29T20:41:25.320Z,16.10
2023-07-29T20:43:51.727Z,16.02
2023-07-29T20:46:18.132Z,16.02
2023-07-29T20:48:44.731Z,16.16
2023-07-29T20:51:11.134Z,16.21
2023-07-29T20:53:37.505Z,16.16
2023-07-29T20:56:03.933Z,15.97
2023-07-29T20:58:30.333Z,16.16
2023-07-29T21:00:56.793Z,15.99
2023-07-29T21:03:23.282Z,16.10
2023-07-29T21:05:49.936Z,15.95
2023-07-29T21:08:16.389Z,16.14
2023-07-29T21:10:42.989Z,16.17
2023-07-29T21:13:09.568Z,16.09
2023-07-29T21:15:36.358Z,15.95
2023-07-29T21:18:02.872Z,16.05
2023-07-29T21:20:29.561Z,15.97
2023-07-29T21:22:55.956Z,15.81
2023-07-29T21:25:22.569Z,15.87
2023-07-29T21:27:48.978Z,15.85
2023-07-29T21:30:15.602Z,15.96
2023-07-29T21:32:42.057Z,15.86
2023-07-29T21:35:08.456Z,16.16
2023-07-29T21:37:36.904Z,15.90
2023-07-29T21:40:03.539Z,16.06
2023-07-29T21:42:30.136Z,16.03
2023-07-29T21:44:56.526Z,16.03
2023-07-29T21:47:22.962Z,15.96
2023-07-29T21:49:49.384Z,16.02
2023-07-29T21:52:15.796Z,15.90
2023-07-29T21:54:42.164Z,16.00
2023-07-29T21:57:08.565Z,16.02
2023-07-29T21:59:34.983Z,16.02
2023-07-29T22:02:01.401Z,15.96
2023-07-29T22:04:27.833Z,16.10
2023-07-29T22:06:54.220Z,16.07
2023-07-29T22:09:20.608Z,15.97
2023-07-29T22:11:47.023Z,16.13
2023-07-29T22:14:13.453Z,16.03
2023-07-29T22:16:39.943Z,16.07
2023-07-29T22:19:06.361Z,15.97
2023-07-29T22:21:32.773Z,16.17
2023-07-29T22:24:00.831Z,16.25
2023-07-29T22:26:27.452Z,16.21
2023-07-29T22:28:54.061Z,16.17
2023-07-29T22:31:20.459Z,16.20
2023-07-29T22:33:47.156Z,16.00
2023-07-29T22:36:13.594Z,16.10
2023-07-29T22:38:40.276Z,16.14
2023-07-29T22:41:06.766Z,16.20
2023-07-29T22:43:33.400Z,15.93
2023-07-29T22:46:00.099Z,16.12
2023-07-29T22:48:26.730Z,16.07
2023-07-29T22:50:53.341Z,16.10
2023-07-29T22:53:19.727Z,16.00
2023-07-29T22:55:46.355Z,15.89
2023-07-29T22:58:12.799Z,15.96
2023-07-29T23:00:39.412Z,15.87
2023-07-29T23:03:06.138Z,16.14
2023-07-29T23:05:32.684Z,15.92
2023-07-29T23:07:59.172Z,16.10
2023-07-29T23:10:25.597Z,16.09
2023-07-29T23:12:52.052Z,16.03
2023-07-29T23:15:18.469Z,16.07
2023-07-29T23:17:45.144Z,15.97
2023-07-29T23:20:11.573Z,16.13
2023-07-29T23:22:38.182Z,16.05
2023-07-29T23:25:04.568Z,16.05
2023-07-29T23:27:31.711Z,16.24
2023-07-29T23:29:58.136Z,16.14
2023-07-29T23:32:24.552Z,16.12
2023-07-29T23:34:50.978Z,16.09
2023-07-29T23:37:17.381Z,16.16
2023-07-29T23:39:43.799Z,16.10
2023-07-29T23:42:10.196Z,16.17
2023-07-29T23:44:36.828Z,16.13
2023-07-29T23:47:03.240Z,16.05
2023-07-29T23:49:29.632Z,16.09
2023-07-29T23:51:56.043Z,16.06
2023-07-29T23:54:22.648Z,16.14
2023-07-29T23:56:49.068Z,16.05
2023-07-29T23:59:15.476Z,16.13
